BTI7PM EKCH-EYVI
Flight info
| Callsign | BTI7PM |
|---|---|
| Flight time | 1h 21m |
| Altitude | 37000 |
| Route | SIMEG9C SIMEG L987 ETRUS DCT TESPO DCT VEDEN DCT VAGVO DCT NEDAM DCT OTNAV OTNAV2A |
| Aircraft | BCS3/M-SDE2E3FGHIRWXY/LB1 |
Departure
| Time | 2026-05-01 12:56 |
|---|---|
| Airport | Copenhagen Kastrup Airport (EKCH) |
Arrival
| Time | 2026-05-01 14:17 |
|---|---|
| Airport | Vilnius International Airport (EYVI) |
| Time | Latitude | Longitude | Altitude | Speed | Heading |
|---|---|---|---|---|---|
| 2026-05-01 12:24 | 55.62737 | 12.64266 | 24 ft | 0 kts | 303° |
| 2026-05-01 12:32 | 55.62737 | 12.64267 | 24 ft | 0 kts | 303° |
| 2026-05-01 12:46 | 55.62736 | 12.64270 | 25 ft | 2 kts | 303° |
| 2026-05-01 12:46 | 55.62723 | 12.64310 | 29 ft | 4 kts | 295° |
| 2026-05-01 12:46 | 55.62715 | 12.64336 | 30 ft | 4 kts | 327° |
| 2026-05-01 12:46 | 55.62701 | 12.64349 | 29 ft | 4 kts | 28° |
| 2026-05-01 12:47 | 55.62689 | 12.64328 | 28 ft | 4 kts | 23° |
| 2026-05-01 12:47 | 55.62664 | 12.64310 | 30 ft | 4 kts | 21° |
| 2026-05-01 12:47 | 55.62639 | 12.64292 | 30 ft | 4 kts | 26° |
| 2026-05-01 12:47 | 55.62618 | 12.64269 | 29 ft | 4 kts | 34° |
| 2026-05-01 12:48 | 55.62595 | 12.64243 | 29 ft | 4 kts | 31° |
| 2026-05-01 12:48 | 55.62572 | 12.64218 | 27 ft | 4 kts | 37° |
| 2026-05-01 12:48 | 55.62553 | 12.64189 | 30 ft | 4 kts | 66° |
| 2026-05-01 12:48 | 55.62547 | 12.64153 | 29 ft | 4 kts | 115° |
| 2026-05-01 12:49 | 55.62556 | 12.64112 | 30 ft | 4 kts | 129° |
| 2026-05-01 12:49 | 55.62569 | 12.64086 | 29 ft | 0 kts | 123° |
| 2026-05-01 12:52 | 55.62542 | 12.64159 | 29 ft | 1 kts | 123° |
| 2026-05-01 12:52 | 55.62524 | 12.64206 | 28 ft | 12 kts | 123° |
| 2026-05-01 12:53 | 55.62429 | 12.64432 | 26 ft | 11 kts | 132° |
| 2026-05-01 12:53 | 55.62358 | 12.64433 | 28 ft | 11 kts | 195° |
| 2026-05-01 12:53 | 55.62277 | 12.64395 | 23 ft | 13 kts | 195° |
| 2026-05-01 12:54 | 55.62180 | 12.64328 | 23 ft | 16 kts | 205° |
| 2026-05-01 12:54 | 55.61950 | 12.64135 | 28 ft | 21 kts | 206° |
| 2026-05-01 12:54 | 55.61806 | 12.64073 | 29 ft | 23 kts | 175° |
| 2026-05-01 12:55 | 55.61559 | 12.63964 | 26 ft | 15 kts | 221° |
| 2026-05-01 12:55 | 55.61332 | 12.63618 | 27 ft | 90 kts | 221° |
| 2026-05-01 12:55 | 55.60602 | 12.62482 | 143 ft | 180 kts | 220° |
| 2026-05-01 12:56 | 55.59591 | 12.60897 | 982 ft | 208 kts | 223° |
| 2026-05-01 12:56 | 55.58521 | 12.59402 | 1915 ft | 184 kts | 217° |
| 2026-05-01 12:56 | 55.57446 | 12.58297 | 2650 ft | 182 kts | 212° |
| 2026-05-01 12:56 | 55.56317 | 12.57150 | 3186 ft | 190 kts | 212° |
| 2026-05-01 12:57 | 55.55183 | 12.56049 | 3797 ft | 183 kts | 210° |
| 2026-05-01 12:57 | 55.52405 | 12.53737 | 5017 ft | 267 kts | 201° |
| 2026-05-01 12:57 | 55.50638 | 12.52756 | 5677 ft | 266 kts | 198° |
| 2026-05-01 12:58 | 55.48890 | 12.51679 | 6332 ft | 266 kts | 203° |
| 2026-05-01 12:58 | 55.47164 | 12.50467 | 6989 ft | 268 kts | 201° |
| 2026-05-01 12:58 | 55.45390 | 12.49434 | 7606 ft | 270 kts | 193° |
| 2026-05-01 12:59 | 55.41999 | 12.51732 | 8913 ft | 285 kts | 126° |
| 2026-05-01 12:59 | 55.41267 | 12.54994 | 9574 ft | 291 kts | 105° |
| 2026-05-01 12:59 | 55.40430 | 12.62160 | 10774 ft | 324 kts | 104° |
| 2026-05-01 13:00 | 55.38898 | 12.70515 | 11935 ft | 382 kts | 107° |
| 2026-05-01 13:00 | 55.38207 | 12.75050 | 12532 ft | 385 kts | 106° |
| 2026-05-01 13:01 | 55.36588 | 12.84152 | 13768 ft | 393 kts | 106° |
| 2026-05-01 13:01 | 55.35824 | 12.88802 | 14379 ft | 398 kts | 108° |
| 2026-05-01 13:01 | 55.34188 | 12.98117 | 15516 ft | 404 kts | 106° |
| 2026-05-01 13:02 | 55.33365 | 13.02866 | 16111 ft | 408 kts | 108° |
| 2026-05-01 13:07 | 55.32078 | 14.12594 | 28928 ft | 475 kts | 77° |
| 2026-05-01 13:07 | 55.32697 | 14.18325 | 29601 ft | 479 kts | 77° |
| 2026-05-01 13:07 | 55.33318 | 14.24115 | 30290 ft | 484 kts | 78° |
| 2026-05-01 13:08 | 55.33942 | 14.29959 | 30897 ft | 488 kts | 78° |
| 2026-05-01 13:08 | 55.34560 | 14.35769 | 31478 ft | 491 kts | 78° |
| 2026-05-01 13:08 | 55.35183 | 14.41660 | 32101 ft | 489 kts | 78° |
| 2026-05-01 13:08 | 55.35802 | 14.47545 | 32731 ft | 487 kts | 78° |
| 2026-05-01 13:09 | 55.36416 | 14.53410 | 33373 ft | 485 kts | 78° |
| 2026-05-01 13:09 | 55.37023 | 14.59240 | 34040 ft | 484 kts | 78° |
| 2026-05-01 13:09 | 55.37625 | 14.65055 | 34664 ft | 482 kts | 78° |
| 2026-05-01 13:09 | 55.38222 | 14.70852 | 35257 ft | 481 kts | 78° |
| 2026-05-01 13:10 | 55.38807 | 14.76564 | 35801 ft | 482 kts | 78° |
| 2026-05-01 13:10 | 55.39399 | 14.82363 | 36155 ft | 479 kts | 78° |
| 2026-05-01 13:10 | 55.39979 | 14.88085 | 36515 ft | 472 kts | 78° |
| 2026-05-01 13:10 | 55.40557 | 14.93808 | 36884 ft | 476 kts | 78° |
| 2026-05-01 13:11 | 55.41138 | 14.99584 | 37146 ft | 481 kts | 78° |
| 2026-05-01 13:11 | 55.41719 | 15.05381 | 37252 ft | 481 kts | 78° |
| 2026-05-01 13:11 | 55.42297 | 15.11184 | 37299 ft | 481 kts | 78° |
| 2026-05-01 13:12 | 55.43439 | 15.22735 | 37335 ft | 482 kts | 78° |
| 2026-05-01 13:12 | 55.44577 | 15.34378 | 37338 ft | 482 kts | 78° |
| 2026-05-01 13:13 | 55.45700 | 15.46018 | 37334 ft | 482 kts | 78° |
| 2026-05-01 13:13 | 55.46828 | 15.57661 | 37335 ft | 481 kts | 76° |
| 2026-05-01 13:13 | 55.48033 | 15.63092 | 37341 ft | 475 kts | 56° |
| 2026-05-01 13:14 | 55.50042 | 15.67698 | 37329 ft | 473 kts | 47° |
| 2026-05-01 13:14 | 55.54523 | 15.76179 | 37327 ft | 472 kts | 44° |
| 2026-05-01 13:15 | 55.59096 | 15.84420 | 37323 ft | 472 kts | 44° |
| 2026-05-01 13:15 | 55.63711 | 15.92685 | 37323 ft | 472 kts | 44° |
| 2026-05-01 13:16 | 55.68319 | 16.00968 | 37316 ft | 472 kts | 44° |
| 2026-05-01 13:16 | 55.72923 | 16.09289 | 37312 ft | 472 kts | 44° |
| 2026-05-01 13:17 | 55.82072 | 16.25955 | 37309 ft | 472 kts | 44° |
| 2026-05-01 13:18 | 55.88925 | 16.38541 | 37305 ft | 471 kts | 44° |
| 2026-05-01 13:18 | 55.93478 | 16.46947 | 37301 ft | 471 kts | 44° |
| 2026-05-01 13:19 | 55.98034 | 16.55391 | 37301 ft | 471 kts | 44° |
| 2026-05-01 13:20 | 56.04823 | 16.68038 | 37295 ft | 471 kts | 44° |
| 2026-05-01 13:20 | 56.09353 | 16.76515 | 37292 ft | 470 kts | 44° |
| 2026-05-01 13:21 | 56.16104 | 16.89207 | 37289 ft | 470 kts | 44° |
| 2026-05-01 13:21 | 56.20608 | 16.97716 | 37286 ft | 469 kts | 44° |
| 2026-05-01 13:22 | 56.25101 | 17.06239 | 37283 ft | 469 kts | 45° |
| 2026-05-01 13:22 | 56.29559 | 17.14736 | 37282 ft | 469 kts | 45° |
| 2026-05-01 13:23 | 56.33320 | 17.24288 | 37289 ft | 476 kts | 67° |
| 2026-05-01 13:23 | 56.35185 | 17.35793 | 37283 ft | 478 kts | 73° |
| 2026-05-01 13:24 | 56.36729 | 17.47396 | 37283 ft | 478 kts | 74° |
| 2026-05-01 13:25 | 56.38901 | 17.64999 | 37284 ft | 480 kts | 78° |
| 2026-05-01 13:25 | 56.38928 | 17.71039 | 37290 ft | 487 kts | 94° |
| 2026-05-01 13:25 | 56.38150 | 17.77016 | 37285 ft | 491 kts | 104° |
| 2026-05-01 13:26 | 56.35729 | 17.88586 | 37287 ft | 493 kts | 108° |
| 2026-05-01 13:26 | 56.33381 | 18.00101 | 37290 ft | 492 kts | 106° |
| 2026-05-01 13:27 | 56.31134 | 18.11763 | 37291 ft | 492 kts | 106° |
| 2026-05-01 13:27 | 56.27795 | 18.29172 | 37292 ft | 492 kts | 106° |
| 2026-05-01 13:28 | 56.24425 | 18.46623 | 37299 ft | 491 kts | 106° |
| 2026-05-01 13:29 | 56.19900 | 18.69812 | 37294 ft | 491 kts | 106° |
| 2026-05-01 13:31 | 56.13054 | 19.04396 | 37292 ft | 491 kts | 106° |
| 2026-05-01 13:32 | 56.07266 | 19.33151 | 37297 ft | 490 kts | 106° |
| 2026-05-01 13:33 | 56.01426 | 19.61745 | 37301 ft | 490 kts | 106° |
| 2026-05-01 13:34 | 55.95381 | 19.83713 | 37305 ft | 494 kts | 114° |
| 2026-05-01 13:35 | 55.91159 | 19.98191 | 37304 ft | 494 kts | 113° |
| 2026-05-01 13:36 | 55.86412 | 20.14509 | 37307 ft | 494 kts | 114° |
| 2026-05-01 13:36 | 55.81323 | 20.30533 | 37310 ft | 496 kts | 116° |
| 2026-05-01 13:37 | 55.77822 | 20.41125 | 37314 ft | 496 kts | 116° |
| 2026-05-01 13:37 | 55.74981 | 20.52139 | 37311 ft | 488 kts | 103° |
| 2026-05-01 13:38 | 55.71719 | 20.69197 | 37316 ft | 488 kts | 104° |
| 2026-05-01 13:39 | 55.69441 | 20.80572 | 37322 ft | 488 kts | 103° |
| 2026-05-01 13:39 | 55.67162 | 20.91922 | 37324 ft | 488 kts | 104° |
| 2026-05-01 13:40 | 55.64904 | 21.03278 | 37323 ft | 489 kts | 105° |
| 2026-05-01 13:40 | 55.62655 | 21.14652 | 37323 ft | 490 kts | 106° |
| 2026-05-01 13:41 | 55.60402 | 21.25921 | 37318 ft | 489 kts | 105° |
| 2026-05-01 13:41 | 55.57806 | 21.37101 | 37319 ft | 491 kts | 108° |
| 2026-05-01 13:42 | 55.55439 | 21.48380 | 37316 ft | 488 kts | 103° |
| 2026-05-01 13:42 | 55.53522 | 21.59780 | 37314 ft | 487 kts | 102° |
| 2026-05-01 13:43 | 55.51097 | 21.71043 | 37315 ft | 489 kts | 104° |
| 2026-05-01 13:43 | 55.48771 | 21.82321 | 37304 ft | 490 kts | 106° |
| 2026-05-01 13:44 | 55.46451 | 21.93629 | 37304 ft | 491 kts | 107° |
| 2026-05-01 13:44 | 55.44137 | 22.04833 | 37306 ft | 490 kts | 106° |
| 2026-05-01 13:44 | 55.42917 | 22.10274 | 37190 ft | 463 kts | 105° |
| 2026-05-01 13:45 | 55.41880 | 22.15505 | 36713 ft | 444 kts | 104° |
| 2026-05-01 13:45 | 55.40788 | 22.20522 | 36248 ft | 431 kts | 106° |
| 2026-05-01 13:45 | 55.39743 | 22.25383 | 35784 ft | 419 kts | 103° |
| 2026-05-01 13:45 | 55.38768 | 22.30191 | 35332 ft | 416 kts | 105° |
| 2026-05-01 13:46 | 55.37711 | 22.34916 | 34888 ft | 412 kts | 105° |
| 2026-05-01 13:46 | 55.36731 | 22.39614 | 34443 ft | 407 kts | 103° |
| 2026-05-01 13:46 | 55.35759 | 22.44211 | 33978 ft | 404 kts | 105° |
| 2026-05-01 13:46 | 55.34739 | 22.48801 | 33486 ft | 400 kts | 104° |
| 2026-05-01 13:47 | 55.33789 | 22.53355 | 32998 ft | 395 kts | 103° |
| 2026-05-01 13:47 | 55.32812 | 22.57868 | 32522 ft | 393 kts | 105° |
| 2026-05-01 13:47 | 55.31828 | 22.62324 | 32053 ft | 389 kts | 104° |
| 2026-05-01 13:47 | 55.30894 | 22.66758 | 31594 ft | 386 kts | 104° |
| 2026-05-01 13:48 | 55.29931 | 22.71153 | 31133 ft | 383 kts | 104° |
| 2026-05-01 13:48 | 55.28975 | 22.75492 | 30690 ft | 379 kts | 104° |
| 2026-05-01 13:48 | 55.28064 | 22.79761 | 30244 ft | 376 kts | 104° |
| 2026-05-01 13:48 | 55.27122 | 22.84039 | 29726 ft | 374 kts | 104° |
| 2026-05-01 13:49 | 55.26184 | 22.88288 | 29220 ft | 371 kts | 103° |
| 2026-05-01 13:49 | 55.25272 | 22.92507 | 28724 ft | 368 kts | 103° |
| 2026-05-01 13:49 | 55.24353 | 22.96672 | 28242 ft | 365 kts | 103° |
| 2026-05-01 13:49 | 55.23435 | 23.00810 | 27760 ft | 362 kts | 103° |
| 2026-05-01 13:50 | 55.22547 | 23.04874 | 27294 ft | 360 kts | 103° |
| 2026-05-01 13:50 | 55.21646 | 23.08946 | 26835 ft | 358 kts | 103° |
| 2026-05-01 13:50 | 55.20744 | 23.12991 | 26381 ft | 355 kts | 103° |
| 2026-05-01 13:50 | 55.19857 | 23.17017 | 25932 ft | 353 kts | 103° |
| 2026-05-01 13:51 | 55.18968 | 23.21013 | 25491 ft | 351 kts | 103° |
| 2026-05-01 13:51 | 55.18080 | 23.24981 | 25061 ft | 349 kts | 103° |
| 2026-05-01 13:51 | 55.17206 | 23.28919 | 24630 ft | 347 kts | 102° |
| 2026-05-01 13:51 | 55.16330 | 23.32838 | 24213 ft | 345 kts | 103° |
| 2026-05-01 13:52 | 55.15452 | 23.36738 | 23784 ft | 343 kts | 102° |
| 2026-05-01 13:52 | 55.14585 | 23.40618 | 23291 ft | 341 kts | 102° |
| 2026-05-01 13:52 | 55.13722 | 23.44463 | 22793 ft | 339 kts | 103° |
| 2026-05-01 13:52 | 55.12871 | 23.48224 | 22328 ft | 336 kts | 103° |
| 2026-05-01 13:53 | 55.12017 | 23.52016 | 21858 ft | 334 kts | 102° |
| 2026-05-01 13:53 | 55.10319 | 23.59522 | 20928 ft | 330 kts | 103° |
| 2026-05-01 13:53 | 55.09476 | 23.63235 | 20482 ft | 327 kts | 103° |
| 2026-05-01 13:54 | 55.08641 | 23.66924 | 20033 ft | 325 kts | 103° |
| 2026-05-01 13:54 | 55.07804 | 23.70595 | 19588 ft | 324 kts | 103° |
| 2026-05-01 13:54 | 55.06971 | 23.74236 | 19163 ft | 322 kts | 103° |
| 2026-05-01 13:54 | 55.06147 | 23.77855 | 18734 ft | 320 kts | 103° |
| 2026-05-01 13:55 | 55.05328 | 23.81444 | 18271 ft | 318 kts | 103° |
| 2026-05-01 13:55 | 55.04517 | 23.84970 | 17794 ft | 315 kts | 103° |
| 2026-05-01 13:55 | 55.03702 | 23.88515 | 17318 ft | 313 kts | 103° |
| 2026-05-01 13:55 | 55.02899 | 23.92021 | 16842 ft | 310 kts | 104° |
| 2026-05-01 13:56 | 55.02099 | 23.95494 | 16379 ft | 308 kts | 104° |
| 2026-05-01 13:56 | 55.01300 | 23.98942 | 15932 ft | 306 kts | 104° |
| 2026-05-01 13:56 | 55.00508 | 24.02383 | 15479 ft | 304 kts | 104° |
| 2026-05-01 13:56 | 54.99720 | 24.05794 | 15034 ft | 302 kts | 104° |
| 2026-05-01 13:57 | 54.98931 | 24.09174 | 14605 ft | 300 kts | 104° |
| 2026-05-01 13:57 | 54.98415 | 24.11392 | 14312 ft | 298 kts | 104° |
| 2026-05-01 13:57 | 54.97396 | 24.15813 | 13716 ft | 296 kts | 105° |
| 2026-05-01 13:57 | 54.96629 | 24.19118 | 13233 ft | 293 kts | 104° |
| 2026-05-01 13:58 | 54.95999 | 24.22452 | 12768 ft | 287 kts | 99° |
| 2026-05-01 13:58 | 54.95506 | 24.25801 | 12304 ft | 284 kts | 96° |
| 2026-05-01 13:58 | 54.95072 | 24.29145 | 11847 ft | 282 kts | 95° |
| 2026-05-01 13:58 | 54.94758 | 24.32471 | 11401 ft | 276 kts | 89° |
| 2026-05-01 13:59 | 54.94634 | 24.35802 | 10957 ft | 274 kts | 87° |
| 2026-05-01 13:59 | 54.94440 | 24.39111 | 10524 ft | 275 kts | 92° |
| 2026-05-01 13:59 | 54.94178 | 24.42410 | 10081 ft | 274 kts | 91° |
| 2026-05-01 13:59 | 54.93997 | 24.45686 | 9608 ft | 271 kts | 89° |
| 2026-05-01 14:00 | 54.93811 | 24.48950 | 9142 ft | 270 kts | 91° |
| 2026-05-01 14:00 | 54.93579 | 24.52184 | 8667 ft | 269 kts | 92° |
| 2026-05-01 14:00 | 54.93371 | 24.55379 | 8210 ft | 267 kts | 91° |
| 2026-05-01 14:00 | 54.93183 | 24.58589 | 7767 ft | 266 kts | 92° |
| 2026-05-01 14:01 | 54.92973 | 24.61786 | 7315 ft | 266 kts | 94° |
| 2026-05-01 14:01 | 54.92606 | 24.64936 | 6887 ft | 267 kts | 103° |
| 2026-05-01 14:01 | 54.92013 | 24.67991 | 6444 ft | 266 kts | 108° |
| 2026-05-01 14:01 | 54.91332 | 24.70921 | 6206 ft | 263 kts | 110° |
| 2026-05-01 14:02 | 54.90579 | 24.73817 | 6063 ft | 263 kts | 116° |
| 2026-05-01 14:02 | 54.89623 | 24.76534 | 5893 ft | 264 kts | 121° |
| 2026-05-01 14:02 | 54.88632 | 24.79215 | 5720 ft | 267 kts | 119° |
| 2026-05-01 14:02 | 54.87686 | 24.82141 | 5531 ft | 284 kts | 117° |
| 2026-05-01 14:03 | 54.86672 | 24.85180 | 5373 ft | 296 kts | 120° |
| 2026-05-01 14:03 | 54.85564 | 24.88233 | 5186 ft | 297 kts | 124° |
| 2026-05-01 14:03 | 54.84012 | 24.90487 | 5090 ft | 289 kts | 153° |
| 2026-05-01 14:03 | 54.82150 | 24.91743 | 5073 ft | 289 kts | 162° |
| 2026-05-01 14:04 | 54.80217 | 24.92600 | 5051 ft | 292 kts | 168° |
| 2026-05-01 14:04 | 54.78203 | 24.93225 | 5030 ft | 298 kts | 171° |
| 2026-05-01 14:04 | 54.76111 | 24.93755 | 5021 ft | 309 kts | 172° |
| 2026-05-01 14:04 | 54.74683 | 24.94062 | 5025 ft | 315 kts | 174° |
| 2026-05-01 14:05 | 54.71685 | 24.94114 | 4951 ft | 323 kts | 182° |
| 2026-05-01 14:05 | 54.69525 | 24.94097 | 4968 ft | 295 kts | 178° |
| 2026-05-01 14:05 | 54.67581 | 24.94273 | 4965 ft | 265 kts | 178° |
| 2026-05-01 14:05 | 54.65838 | 24.94305 | 5003 ft | 243 kts | 181° |
| 2026-05-01 14:06 | 54.64215 | 24.94303 | 5014 ft | 224 kts | 179° |
| 2026-05-01 14:06 | 54.62677 | 24.94401 | 4856 ft | 224 kts | 178° |
| 2026-05-01 14:06 | 54.61100 | 24.94475 | 4583 ft | 226 kts | 180° |
| 2026-05-01 14:06 | 54.59558 | 24.94281 | 4317 ft | 219 kts | 189° |
| 2026-05-01 14:07 | 54.58072 | 24.93796 | 4003 ft | 216 kts | 195° |
| 2026-05-01 14:07 | 54.56633 | 24.93083 | 3721 ft | 215 kts | 199° |
| 2026-05-01 14:07 | 54.55224 | 24.92295 | 3525 ft | 205 kts | 200° |
| 2026-05-01 14:08 | 54.52687 | 24.90774 | 3227 ft | 182 kts | 201° |
| 2026-05-01 14:08 | 54.51520 | 24.90074 | 3097 ft | 180 kts | 200° |
| 2026-05-01 14:08 | 54.50246 | 24.89643 | 3043 ft | 189 kts | 175° |
| 2026-05-01 14:08 | 54.49135 | 24.90665 | 3031 ft | 183 kts | 135° |
| 2026-05-01 14:09 | 54.48127 | 24.92147 | 3025 ft | 195 kts | 141° |
| 2026-05-01 14:09 | 54.47087 | 24.93625 | 3020 ft | 196 kts | 140° |
| 2026-05-01 14:09 | 54.46224 | 24.95399 | 3057 ft | 195 kts | 115° |
| 2026-05-01 14:09 | 54.45710 | 24.97530 | 3035 ft | 193 kts | 109° |
| 2026-05-01 14:10 | 54.45221 | 24.99683 | 3040 ft | 194 kts | 117° |
| 2026-05-01 14:10 | 54.44404 | 25.01547 | 3148 ft | 194 kts | 127° |
| 2026-05-01 14:10 | 54.43738 | 25.03509 | 3193 ft | 190 kts | 113° |
| 2026-05-01 14:10 | 54.43454 | 25.05700 | 3117 ft | 187 kts | 83° |
| 2026-05-01 14:11 | 54.43644 | 25.07838 | 3066 ft | 180 kts | 79° |
| 2026-05-01 14:11 | 54.44135 | 25.11953 | 3022 ft | 172 kts | 68° |
| 2026-05-01 14:11 | 54.44585 | 25.13839 | 2946 ft | 172 kts | 53° |
| 2026-05-01 14:12 | 54.45499 | 25.15129 | 2891 ft | 174 kts | 30° |
| 2026-05-01 14:12 | 54.46513 | 25.16160 | 2804 ft | 165 kts | 27° |
| 2026-05-01 14:12 | 54.47495 | 25.17120 | 2770 ft | 164 kts | 27° |
| 2026-05-01 14:12 | 54.48538 | 25.18086 | 2742 ft | 174 kts | 25° |
| 2026-05-01 14:13 | 54.49593 | 25.19018 | 2658 ft | 173 kts | 24° |
| 2026-05-01 14:13 | 54.50324 | 25.19585 | 2593 ft | 168 kts | 21° |
| 2026-05-01 14:13 | 54.51728 | 25.20602 | 2541 ft | 164 kts | 20° |
| 2026-05-01 14:13 | 54.52777 | 25.21356 | 2518 ft | 163 kts | 20° |
| 2026-05-01 14:14 | 54.53800 | 25.22058 | 2471 ft | 148 kts | 19° |
| 2026-05-01 14:14 | 54.54721 | 25.22662 | 2268 ft | 141 kts | 17° |
| 2026-05-01 14:14 | 54.55626 | 25.23247 | 2056 ft | 139 kts | 18° |
| 2026-05-01 14:14 | 54.56543 | 25.23821 | 1908 ft | 138 kts | 17° |
| 2026-05-01 14:15 | 54.57439 | 25.24412 | 1757 ft | 136 kts | 18° |
| 2026-05-01 14:15 | 54.58332 | 25.25047 | 1569 ft | 140 kts | 20° |
| 2026-05-01 14:15 | 54.59229 | 25.25666 | 1320 ft | 139 kts | 19° |
| 2026-05-01 14:15 | 54.60123 | 25.26288 | 1073 ft | 138 kts | 19° |
| 2026-05-01 14:16 | 54.61010 | 25.26920 | 895 ft | 139 kts | 18° |
| 2026-05-01 14:16 | 54.61946 | 25.27558 | 717 ft | 146 kts | 19° |
| 2026-05-01 14:16 | 54.62823 | 25.28159 | 600 ft | 121 kts | 18° |
| 2026-05-01 14:16 | 54.63445 | 25.28588 | 613 ft | 71 kts | 20° |
| 2026-05-01 14:17 | 54.63738 | 25.28760 | 629 ft | 29 kts | 358° |
| 2026-05-01 14:17 | 54.63902 | 25.28732 | 640 ft | 19 kts | 355° |
| 2026-05-01 14:17 | 54.64005 | 25.28718 | 643 ft | 10 kts | 355° |
| 2026-05-01 14:17 | 54.64048 | 25.28712 | 644 ft | 3 kts | 355° |
| 2026-05-01 14:18 | 54.64077 | 25.28707 | 647 ft | 6 kts | 354° |
| 2026-05-01 14:18 | 54.64118 | 25.28656 | 646 ft | 10 kts | 274° |
| 2026-05-01 14:18 | 54.64119 | 25.28519 | 643 ft | 12 kts | 270° |
| 2026-05-01 14:18 | 54.64118 | 25.28419 | 641 ft | 13 kts | 269° |
| 2026-05-01 14:19 | 54.64144 | 25.28329 | 639 ft | 0 kts | 359° |
| 2026-05-01 14:19 | 54.64170 | 25.28315 | 644 ft | 6 kts | 316° |
| 2026-05-01 14:19 | 54.64199 | 25.28282 | 638 ft | 5 kts | 337° |
| 2026-05-01 14:19 | 54.64231 | 25.28281 | 641 ft | 5 kts | 0° |
| 2026-05-01 14:20 | 54.64245 | 25.28281 | 641 ft | 0 kts | 0° |
| 2026-05-01 14:20 | 54.64246 | 25.28281 | 641 ft | 0 kts | 0° |